Grand Rapids, Ohio
Current Conditions -  °F | °C
As of 12:52 AM on Friday 28 Nov 2014 (Local Time) from KTOL Reporting Station
Overcast Overcast  
Wind Chill: 14°   Ceiling: 4800
Heat Index: 22°   Visibility: 10mi
Dew Point: 14°   Wind: 6mph
Humidity: 72%   Direction: 290°WNW
Pressure: 30.33"   Gusts: NA
Location:  41.41°N, 83.86°W
Report Text: KTOL 280552Z 29005KT 10SM OVC048 M06/M10 A3033 RMK AO2 SLP279 60000 T10561100 11011 21056 50005
Loading
Personal Weather Stations






























Interactive Weather Map New forecast layout! Learn more

10-Day Weather Forecast

Advertisements
Track Severe Weather on mobile